メインページ
METAR-TAF:

METAR-TAF

空港 :

ヴィエンチャン, ラオス

ワットタイ国際空港

緯度: 17-57N, 経度: 102-34E, 海抜: 171m

現時点の気象観測

当レポートは27分前の01:30(UTC)に作成
の風 2kt
気温 27°C
湿度 84%
気圧 1008 hPa
視程: 7000m
高度2000ftの雲は散在している
高度4000ftの千切れ雲あり

METAR: VLVT 260130Z 18002KT 7000 SCT020 BKN040 27/24 Q1008 NOSIG

時間: 08:57 (01:57 UTC)


TAF: 見つかりません

4,000以上の空港の気象観測と天気予報(METAR報とTAF報)

利用可能な観測所は地図上に黄色い丸と赤い丸で示す。

丸の上にカーソルを重ねると観測所名を参照できる。

次にクリックすると気象観測と天気予報を参照できる。

マップの切り替え:黒色「×」印の緑ボタンをクリックして拡大、「-」印の緑ボタンをクリックして縮小、緑色の三角印をクリックして隣りの地図に切り替え


METAR-TAF: